createdAt,value
2018-12-10T00:02:43.690Z,6.71
2018-12-10T00:06:52.046Z,6.70
2018-12-10T00:10:57.988Z,6.74
2018-12-10T00:15:04.663Z,6.72
2018-12-10T00:19:11.968Z,6.67
2018-12-10T00:23:19.182Z,6.66
2018-12-10T00:27:24.924Z,6.61
2018-12-10T00:31:30.811Z,6.56
2018-12-10T00:35:36.822Z,6.53
2018-12-10T00:39:42.598Z,6.51
2018-12-10T00:43:48.449Z,6.50
2018-12-10T00:47:55.305Z,6.41
2018-12-10T00:52:01.113Z,6.30
2018-12-10T00:56:07.263Z,6.30
2018-12-10T01:00:13.494Z,6.31
2018-12-10T01:04:20.268Z,6.29
2018-12-10T01:08:26.416Z,6.23
2018-12-10T01:12:32.587Z,6.22
2018-12-10T01:16:38.999Z,6.18
2018-12-10T01:20:44.986Z,6.19
2018-12-10T01:24:50.832Z,6.27
2018-12-10T01:28:56.772Z,6.23
2018-12-10T01:33:02.661Z,6.18
2018-12-10T01:37:10.431Z,6.09
2018-12-10T01:41:16.758Z,6.07
2018-12-10T01:45:22.659Z,5.96
2018-12-10T01:49:28.479Z,5.93
2018-12-10T01:53:34.515Z,5.83
2018-12-10T01:57:41.462Z,5.83
2018-12-10T02:01:48.685Z,5.82
2018-12-10T02:05:54.866Z,5.78
2018-12-10T02:10:00.771Z,5.74
2018-12-10T02:14:07.963Z,5.66
2018-12-10T02:18:14.062Z,5.66
2018-12-10T02:22:20.583Z,5.67
2018-12-10T02:26:26.444Z,5.65
2018-12-10T02:30:32.303Z,5.72
2018-12-10T02:34:39.260Z,5.77
2018-12-10T02:38:45.083Z,5.63
2018-12-10T02:42:52.565Z,5.52
2018-12-10T02:46:58.441Z,5.45
2018-12-10T02:51:04.667Z,5.39
2018-12-10T02:55:10.598Z,5.34
2018-12-10T02:59:17.077Z,5.39
2018-12-10T03:03:23.188Z,5.29
2018-12-10T03:07:29.349Z,5.08
2018-12-10T03:11:34.882Z,5.01
2018-12-10T03:15:41.911Z,5.03
2018-12-10T03:19:47.819Z,4.94
2018-12-10T03:23:53.469Z,4.85
2018-12-10T03:27:59.473Z,4.79
2018-12-10T03:32:07.126Z,4.71
2018-12-10T03:36:13.213Z,4.74
2018-12-10T03:40:20.086Z,4.70
2018-12-10T03:44:26.006Z,4.71
2018-12-10T03:48:32.047Z,4.72
2018-12-10T03:52:38.082Z,4.72
2018-12-10T03:56:43.968Z,4.78
2018-12-10T04:00:49.492Z,4.77
2018-12-10T04:04:55.469Z,4.80
2018-12-10T04:09:01.348Z,4.86
2018-12-10T04:13:09.234Z,4.82
2018-12-10T04:17:14.948Z,4.83
2018-12-10T04:21:21.030Z,4.84
2018-12-10T04:25:27.023Z,4.81
2018-12-10T04:29:33.187Z,4.82
2018-12-10T04:33:39.968Z,4.93
2018-12-10T04:37:45.930Z,4.95
2018-12-10T04:41:52.661Z,4.89
2018-12-10T04:45:58.519Z,4.86
2018-12-10T04:50:04.975Z,4.89
2018-12-10T04:54:10.775Z,4.84
2018-12-10T04:58:16.422Z,4.82
2018-12-10T05:02:22.462Z,4.82
2018-12-10T05:06:28.376Z,4.76
2018-12-10T05:10:34.372Z,4.79
2018-12-10T05:14:40.055Z,4.75
2018-12-10T05:18:45.809Z,4.72
2018-12-10T05:22:51.917Z,4.72
2018-12-10T05:26:58.043Z,4.74
2018-12-10T05:31:04.170Z,4.71
2018-12-10T05:35:09.877Z,4.76
2018-12-10T05:39:15.749Z,4.86
2018-12-10T05:43:21.968Z,4.90
2018-12-10T05:47:28.987Z,4.89
2018-12-10T05:51:35.106Z,4.95
2018-12-10T05:55:44.311Z,4.95
2018-12-10T05:59:50.897Z,4.97
2018-12-10T06:03:57.144Z,4.92
2018-12-10T06:08:03.227Z,4.92
2018-12-10T06:12:09.342Z,4.86
2018-12-10T06:16:16.707Z,4.88
2018-12-10T06:20:23.166Z,4.93
2018-12-10T06:24:29.017Z,4.95
2018-12-10T06:28:34.900Z,4.98
2018-12-10T06:32:40.780Z,5.07
2018-12-10T06:36:47.411Z,5.17
2018-12-10T06:40:55.764Z,5.04
2018-12-10T06:45:01.653Z,5.12
2018-12-10T06:49:07.419Z,5.16
2018-12-10T06:53:14.242Z,5.14
2018-12-10T06:57:20.339Z,5.22
2018-12-10T07:01:26.409Z,5.22
2018-12-10T07:05:32.653Z,5.31
2018-12-10T07:09:39.344Z,5.32
2018-12-10T07:13:45.003Z,5.24
2018-12-10T07:17:50.686Z,5.36
2018-12-10T07:21:56.218Z,5.55
2018-12-10T07:26:01.812Z,5.34
2018-12-10T07:30:09.747Z,5.23
2018-12-10T07:34:15.593Z,5.25
2018-12-10T07:38:21.303Z,5.11
2018-12-10T07:42:27.473Z,4.94
2018-12-10T07:46:33.904Z,4.98
2018-12-10T07:50:39.526Z,4.99
2018-12-10T07:54:45.400Z,4.88
2018-12-10T07:58:50.998Z,4.88
2018-12-10T08:02:56.730Z,4.96
2018-12-10T08:07:02.324Z,5.03
2018-12-10T08:11:07.948Z,4.99
2018-12-10T08:15:13.788Z,5.02
2018-12-10T08:19:19.440Z,5.32
2018-12-10T08:23:25.678Z,5.43
2018-12-10T08:27:31.323Z,5.50
2018-12-10T08:31:37.218Z,5.59
2018-12-10T08:35:43.369Z,5.77
2018-12-10T08:39:48.964Z,5.95
2018-12-10T08:43:54.554Z,5.85
2018-12-10T08:48:00.210Z,5.97
2018-12-10T08:52:05.975Z,6.04
2018-12-10T08:56:11.638Z,6.05
2018-12-10T09:00:17.265Z,5.98
2018-12-10T09:04:23.017Z,5.96
2018-12-10T09:08:28.726Z,5.93
2018-12-10T09:12:34.539Z,6.00
2018-12-10T09:16:40.420Z,6.06
2018-12-10T09:20:47.188Z,6.09
2018-12-10T09:24:52.931Z,5.99
2018-12-10T09:28:58.956Z,6.01
2018-12-10T09:33:04.681Z,6.23
2018-12-10T09:37:10.339Z,6.29
2018-12-10T09:41:16.102Z,6.24
2018-12-10T09:45:21.691Z,6.51
2018-12-10T09:49:27.496Z,6.59
2018-12-10T09:53:33.223Z,7.00
2018-12-10T09:57:40.375Z,6.93
2018-12-10T10:01:47.682Z,8.00
2018-12-10T10:05:53.342Z,7.72
2018-12-10T10:09:59.507Z,7.48
2018-12-10T10:14:05.900Z,7.54
2018-12-10T10:18:11.556Z,7.30
2018-12-10T10:22:17.226Z,7.23
2018-12-10T10:26:22.914Z,7.14
2018-12-10T10:30:29.214Z,7.22
2018-12-10T10:34:35.233Z,7.08
2018-12-10T10:38:41.013Z,7.18
2018-12-10T10:42:48.095Z,7.17
2018-12-10T10:46:54.143Z,7.05
2018-12-10T10:50:59.812Z,7.59
2018-12-10T10:55:06.032Z,7.37
2018-12-10T10:59:11.755Z,7.22
2018-12-10T11:03:50.930Z,7.43
2018-12-10T11:07:56.521Z,7.29
2018-12-10T11:12:02.619Z,7.52
2018-12-10T11:16:09.004Z,7.26
2018-12-10T11:20:15.262Z,7.38
2018-12-10T11:24:21.116Z,7.27
2018-12-10T11:28:26.737Z,7.38
2018-12-10T11:32:32.484Z,7.30
2018-12-10T11:36:38.242Z,7.27
2018-12-10T11:40:44.042Z,7.31
2018-12-10T11:44:50.687Z,7.02
2018-12-10T11:48:57.545Z,6.86
2018-12-10T11:53:03.124Z,6.97
2018-12-10T11:57:08.857Z,6.91
2018-12-10T12:01:14.677Z,6.76
2018-12-10T12:05:20.311Z,6.76
2018-12-10T12:09:25.914Z,6.62
2018-12-10T12:13:31.544Z,6.69
2018-12-10T12:17:38.064Z,6.62
2018-12-10T12:21:43.880Z,6.53
2018-12-10T12:25:49.540Z,6.44
2018-12-10T12:29:55.192Z,6.49
2018-12-10T12:34:01.970Z,6.37
2018-12-10T12:38:07.731Z,6.53
2018-12-10T12:42:13.594Z,6.59
2018-12-10T12:46:19.324Z,7.31
2018-12-10T12:50:24.967Z,6.66
2018-12-10T12:54:30.590Z,6.64
2018-12-10T12:58:36.134Z,6.67
2018-12-10T13:02:42.381Z,6.60
2018-12-10T13:06:48.597Z,6.52
2018-12-10T13:10:54.198Z,6.48
2018-12-10T13:14:59.816Z,6.59
2018-12-10T13:19:05.677Z,6.59
2018-12-10T13:23:11.576Z,6.66
2018-12-10T13:27:17.166Z,6.49
2018-12-10T13:31:22.836Z,6.76
2018-12-10T13:35:29.471Z,6.74
2018-12-10T13:39:36.037Z,6.89
2018-12-10T13:43:42.674Z,6.75
2018-12-10T13:47:51.560Z,6.65
2018-12-10T13:51:59.580Z,6.55
2018-12-10T13:56:05.367Z,6.52
2018-12-10T14:00:12.359Z,6.38
2018-12-10T14:04:23.601Z,6.41
2018-12-10T14:08:29.489Z,6.28
2018-12-10T14:12:35.350Z,6.27
2018-12-10T14:16:41.122Z,6.28
2018-12-10T14:20:48.000Z,6.23
2018-12-10T14:24:54.163Z,6.09
2018-12-10T14:29:01.045Z,6.12
2018-12-10T14:33:07.051Z,6.02
2018-12-10T14:37:13.670Z,5.98
2018-12-10T14:41:19.338Z,5.94
2018-12-10T14:45:25.275Z,5.92
2018-12-10T14:49:31.295Z,5.89
2018-12-10T14:53:37.227Z,5.93
2018-12-10T14:57:43.118Z,5.92
2018-12-10T15:01:53.617Z,5.94
2018-12-10T15:05:59.525Z,5.93
2018-12-10T15:10:07.460Z,5.84
2018-12-10T15:14:13.122Z,5.76
2018-12-10T15:18:18.686Z,5.86
2018-12-10T15:22:25.207Z,5.85
2018-12-10T15:26:30.863Z,5.81
2018-12-10T15:30:37.647Z,5.82
2018-12-10T15:34:43.713Z,5.82
2018-12-10T15:38:50.608Z,5.87
2018-12-10T15:42:56.299Z,5.85
2018-12-10T15:47:04.192Z,5.91
2018-12-10T15:51:12.056Z,5.88
2018-12-10T15:55:17.672Z,5.90
2018-12-10T15:59:23.448Z,5.84
2018-12-10T16:03:29.091Z,5.88
2018-12-10T16:07:35.144Z,6.02
2018-12-10T16:11:40.850Z,5.99
2018-12-10T16:15:46.731Z,6.00
2018-12-10T16:19:52.916Z,5.94
2018-12-10T16:23:58.837Z,5.85
2018-12-10T16:28:04.819Z,5.75
2018-12-10T16:32:10.508Z,5.56
2018-12-10T16:36:16.706Z,5.54
2018-12-10T16:40:23.934Z,5.47
2018-12-10T16:44:31.008Z,5.42
2018-12-10T16:48:37.158Z,5.35
2018-12-10T16:52:45.231Z,5.35
2018-12-10T16:56:51.804Z,5.33
2018-12-10T17:00:58.138Z,5.21
2018-12-10T17:05:10.882Z,5.27
2018-12-10T17:09:17.848Z,5.27
2018-12-10T17:13:23.970Z,5.30
2018-12-10T17:17:29.949Z,5.22
2018-12-10T17:21:36.947Z,5.27
2018-12-10T17:25:42.761Z,5.25
2018-12-10T17:29:49.413Z,5.22
2018-12-10T17:33:56.343Z,5.26
2018-12-10T17:38:02.992Z,5.25
2018-12-10T17:42:11.209Z,5.18
2018-12-10T17:46:17.607Z,5.17
2018-12-10T17:50:23.493Z,5.13
2018-12-10T17:54:29.786Z,5.14
2018-12-10T17:58:35.721Z,5.18
2018-12-10T18:02:44.417Z,5.28
2018-12-10T18:06:50.540Z,5.25
2018-12-10T18:10:57.680Z,5.23
2018-12-10T18:15:05.802Z,5.29
2018-12-10T18:19:14.757Z,5.23
2018-12-10T18:23:21.999Z,5.32
2018-12-10T18:27:28.094Z,5.23
2018-12-10T18:31:33.894Z,5.29
2018-12-10T18:35:41.011Z,5.28
2018-12-10T18:39:53.208Z,5.03
2018-12-10T18:44:01.790Z,5.03
2018-12-10T18:48:15.476Z,5.07
2018-12-10T18:52:21.840Z,4.97
2018-12-10T18:56:30.472Z,4.86
2018-12-10T19:00:38.010Z,4.86
2018-12-10T19:04:44.326Z,4.68
2018-12-10T19:08:51.990Z,4.66
2018-12-10T19:17:13.475Z,4.62
2018-12-10T19:21:21.984Z,4.64
2018-12-10T19:25:43.984Z,4.63
2018-12-10T19:29:50.149Z,4.58
2018-12-10T19:33:56.746Z,4.74
2018-12-10T19:38:03.010Z,4.62
2018-12-10T19:42:10.250Z,4.61
2018-12-10T19:46:16.272Z,4.53
2018-12-10T19:50:22.418Z,4.50
2018-12-10T19:54:29.660Z,4.60
2018-12-10T19:58:37.948Z,4.57
2018-12-10T20:02:44.136Z,4.60
2018-12-10T20:06:56.940Z,4.68
2018-12-10T20:11:03.137Z,4.51
2018-12-10T20:15:10.658Z,4.75
2018-12-10T20:19:17.832Z,4.63
2018-12-10T20:23:23.875Z,4.62
2018-12-10T20:27:31.210Z,4.78
2018-12-10T20:31:37.354Z,4.77
2018-12-10T20:35:44.596Z,4.93
2018-12-10T20:39:50.610Z,4.71
2018-12-10T20:43:56.979Z,4.85
2018-12-10T20:48:04.436Z,4.79
2018-12-10T20:52:12.947Z,4.75
2018-12-10T20:56:19.327Z,4.82
2018-12-10T21:00:25.363Z,4.92
2018-12-10T21:04:31.812Z,4.83
2018-12-10T21:08:38.552Z,4.97
2018-12-10T21:12:44.963Z,5.02
2018-12-10T21:16:50.966Z,4.98
2018-12-10T21:20:58.425Z,4.96
2018-12-10T21:25:07.100Z,5.06
2018-12-10T21:29:13.408Z,4.99
2018-12-10T21:33:20.160Z,5.00
2018-12-10T21:37:26.820Z,5.11
2018-12-10T21:41:32.988Z,5.14
2018-12-10T21:45:39.195Z,5.06
2018-12-10T21:49:46.821Z,5.25
2018-12-10T21:53:53.358Z,5.18
2018-12-10T21:57:59.347Z,5.22
2018-12-10T22:02:05.330Z,5.18
2018-12-10T22:10:48.024Z,5.18
2018-12-10T22:14:54.548Z,5.25
2018-12-10T22:19:00.531Z,5.29
2018-12-10T22:23:06.812Z,5.26
2018-12-10T22:27:13.051Z,5.25
2018-12-10T22:31:19.295Z,5.18
2018-12-10T22:35:26.404Z,5.20
2018-12-10T22:39:32.162Z,5.25
2018-12-10T22:43:38.317Z,5.31
2018-12-10T22:47:44.758Z,5.22
2018-12-10T22:51:50.505Z,5.14
2018-12-10T22:55:56.511Z,5.10
2018-12-10T23:00:07.206Z,5.12
2018-12-10T23:04:14.987Z,5.07
2018-12-10T23:08:21.714Z,5.16
2018-12-10T23:12:27.647Z,5.18
2018-12-10T23:16:33.640Z,5.15
2018-12-10T23:20:39.686Z,5.20
2018-12-10T23:24:45.626Z,5.25
2018-12-10T23:28:51.528Z,5.30
2018-12-10T23:32:57.511Z,5.18
2018-12-10T23:37:03.715Z,5.26
2018-12-10T23:41:09.483Z,5.27
2018-12-10T23:45:16.469Z,5.30
2018-12-10T23:49:22.422Z,5.32
2018-12-10T23:53:28.123Z,5.18
2018-12-10T23:57:33.917Z,5.08
